Portada
Imágenes satélite Pronóstico 10 díasClimaPredicción Marítima Ciclones Rayo AeropuertosFAQ Noticias Acerca
El tiempo : Europa África América del Norte América del Sur Asia Australia-Oceanía Otros
Idiomas Contacto

Chichén Itzá, México

Aeropuerto Internacional de Kaua

latitud: 20-38-30N, longitud: 088-26-58W, altitud: 31 m


METAR: MMCT 191640Z 15010KT 8SM BKN015 33/21 A2989 RMK 8/400 MSGTX MMMD
TAF: falta

Hora: 12:31 (17:31 UTC)

Observación

El informe se hizo hace 51 minutos, a las 16:40 UTC
Viento 10 kt del sur-sureste
Temperatura 33°C
Humedad 49%
Presión 1012 hPa
Visibilidad: 12.9 km
Cielo nuboso a una altura de 1500 ft

Cambiar las unidades
La información que se ofrece en estas páginas está sujeta a una cláusula de exención de responsabilidad
El tiempo : Europa África América del Norte América del Sur Asia Australia-Oceanía Otros
Imágenes satélite Pronóstico 10 díasClimaPredicción Marítima Ciclones Rayo AeropuertosFAQ Idiomas Contacto Noticias Acerca